This is the latest recevied weather packets stored in our database for station/object XE1E-15. If no packets are shown the sender has not sent any weather packets the latest 10 day(s).
| Time | Temp. | Humidity | Pressure | Rain* | Wind** | Luminosity | Snow |
|---|---|---|---|---|---|---|---|
| 1778217637 | 25° C | 47% | 1024.8 hPa | - | - | - | - |
| 1778216677 | 25° C | 48% | 1024.8 hPa | - | - | - | - |
| 1778215717 | 25.56° C | 46% | 1024.5 hPa | - | - | - | - |
| 1778214757 | 25.56° C | 44% | 1024.9 hPa | - | - | - | - |
| 1778213797 | 26.11° C | 41% | 1025.1 hPa | - | - | - | - |
| 1778212837 | 25.56° C | 41% | 1024.6 hPa | - | - | - | - |
| 1778211877 | 25.56° C | 42% | 1024.1 hPa | - | - | - | - |
| 1778210917 | 25.56° C | 41% | 1023.8 hPa | - | - | - | - |
| 1778209956 | 25.56° C | 42% | 1024 hPa | - | - | - | - |
| 1778208996 | 26.11° C | 42% | 1023.9 hPa | - | - | - | - |
| 1778208036 | 26.11° C | 41% | 1023.7 hPa | - | - | - | - |
| 1778207076 | 26.11° C | 41% | 1023.4 hPa | - | - | - | - |
| 1778206116 | 26.67° C | 39% | 1023.1 hPa | - | - | - | - |
| 1778205156 | 26.67° C | 40% | 1022.8 hPa | - | - | - | - |
| 1778204196 | 25° C | 41% | 1022.4 hPa | - | - | - | - |
| 1778203236 | 25° C | 42% | 1022.2 hPa | - | - | - | - |
| 1778202276 | 26.11° C | 38% | 1021.9 hPa | - | - | - | - |
| 1778201353 | 26.11° C | 38% | 1021.5 hPa | - | - | - | - |
| 1778201316 | 26.11° C | 38% | 1021.5 hPa | - | - | - | - |
| 1778200355 | 27.22° C | 29% | 1021.2 hPa | - | - | - | - |
| 1778199395 | 28.33° C | 28% | 1020.8 hPa | - | - | - | - |
| 1778198434 | 28.89° C | 28% | 1020.7 hPa | - | - | - | - |
| 1778197474 | 29.44° C | 28% | 1020.7 hPa | - | - | - | - |
| 1778196997 | 29.44° C | 28% | 1020.6 hPa | - | - | - | - |
| 1778196037 | 29.44° C | 28% | 1020.4 hPa | - | - | - | - |
* Rain since midnight (hover to see other rain measurements)
** Current wind speed in m/s (hover to see current wind gust speed)